Time;durP1;ratioP1;P1;durP2;ratioP2;P2;SDS_P1;SDS_P2;PMS_P1;PMS_P2;Temp;Humidity;BMP_temperature;BMP_pressure;BME280_temperature;BME280_humidity;BME280_pressure;Samples;Min_cycle;Max_cycle;Signal;HPM_P1;HPM_P2
2022/10/18 00:01:12;;;;;;;8.30;4.20;;;17.60;99.00;;;;;;5067604;28;20366;-84
2022/10/18 00:14:18;;;;;;;5.95;3.78;;;17.60;99.20;;;;;;4847444;29;20029;-83
2022/10/18 00:16:44;;;;;;;8.55;4.13;;;17.60;99.30;;;;;;5007128;28;20124;-83
2022/10/18 00:19:10;;;;;;;5.43;3.95;;;17.60;99.30;;;;;;5055585;28;20123;-83
2022/10/18 00:21:35;;;;;;;5.15;3.60;;;17.60;99.40;;;;;;5072398;28;20035;-86
2022/10/18 00:24:01;;;;;;;6.63;3.85;;;17.60;99.40;;;;;;5070479;28;20017;-86
2022/10/18 00:26:28;;;;;;;8.95;3.95;;;17.60;99.50;;;;;;5061001;28;20072;-87
2022/10/18 00:55:10;;;;;;;5.60;3.95;;;17.60;99.40;;;;;;4713584;30;20122;-88
2022/10/18 00:57:38;;;;;;;7.68;3.97;;;17.60;99.40;;;;;;4731151;30;20045;-84
2022/10/18 01:00:08;;;;;;;7.88;4.10;;;17.60;99.50;;;;;;4870595;28;20044;-84
2022/10/18 01:02:35;;;;;;;9.60;4.45;;;17.60;99.60;;;;;;5040603;28;20025;-84
2022/10/18 01:05:01;;;;;;;8.07;4.38;;;17.60;99.70;;;;;;5064893;28;20028;-85
2022/10/18 01:07:52;;;;;;;6.95;4.82;;;17.60;99.60;;;;;;5068040;28;20105;-85
2022/10/18 01:10:52;;;;;;;9.25;5.35;;;17.60;99.70;;;;;;5059804;28;20025;-86
2022/10/18 01:13:33;;;;;;;8.82;5.53;;;17.60;99.60;;;;;;5069479;28;20025;-85
2022/10/18 01:16:37;;;;;;;8.30;5.28;;;17.70;99.80;;;;;;5067069;28;20506;-85
2022/10/18 01:19:21;;;;;;;11.85;5.15;;;17.60;99.60;;;;;;5067848;28;20431;-85
2022/10/18 01:22:23;;;;;;;10.35;5.88;;;17.60;99.60;;;;;;5077019;28;20024;-87
2022/10/18 01:25:24;;;;;;;10.32;5.70;;;17.60;99.80;;;;;;5063486;28;20124;-86
2022/10/18 01:28:11;;;;;;;11.38;5.85;;;17.60;99.70;;;;;;5066219;28;20098;-84
2022/10/18 01:30:39;;;;;;;11.38;5.90;;;17.60;99.80;;;;;;5076269;28;20028;-84
2022/10/18 01:33:15;;;;;;;11.93;6.03;;;17.60;99.80;;;;;;5078878;28;20025;-85
2022/10/18 01:35:53;;;;;;;12.88;6.20;;;17.70;99.90;;;;;;5077613;28;20017;-83
2022/10/18 01:38:22;;;;;;;12.95;6.65;;;17.60;99.90;;;;;;5069529;28;20021;-84
2022/10/18 01:40:53;;;;;;;12.15;6.63;;;17.60;99.90;;;;;;5078927;28;20024;-85
2022/10/18 01:43:26;;;;;;;14.07;7.25;;;17.60;99.90;;;;;;5077099;28;20033;-85
2022/10/18 01:46:04;;;;;;;;;;;;;;;;;;;;;
2022/10/18 01:49:36;;;;;;;14.05;7.13;;;17.60;99.90;;;;;;5074428;28;20099;-85
2022/10/18 01:53:28;;;;;;;;;;;;;;;;;;;;;
2022/10/18 01:59:37;;;;;;;13.68;6.90;;;17.70;99.90;;;;;;4972130;28;20118;-84
2022/10/18 02:02:18;;;;;;;11.82;5.95;;;17.70;99.90;;;;;;4972756;28;20035;-83
2022/10/18 02:04:59;;;;;;;14.18;7.03;;;17.70;99.90;;;;;;4998483;28;20056;-83
2022/10/18 02:07:43;;;;;;;14.05;6.55;;;17.70;99.90;;;;;;5077343;28;20024;-82
2022/10/18 02:10:21;;;;;;;10.65;6.60;;;17.70;99.90;;;;;;5071175;28;20103;-83
2022/10/18 02:12:48;;;;;;;12.07;7.18;;;17.70;99.90;;;;;;5075698;28;20027;-83
2022/10/18 02:15:19;;;;;;;11.73;6.97;;;17.60;99.90;;;;;;5065099;28;20025;-83
2022/10/18 02:17:46;;;;;;;10.15;7.40;;;17.70;99.90;;;;;;5077262;28;20028;-82
2022/10/18 02:20:13;;;;;;;14.07;7.45;;;17.70;99.90;;;;;;5065118;28;20124;-83
2022/10/18 02:22:41;;;;;;;12.65;7.60;;;17.60;99.90;;;;;;5076610;28;20025;-82
2022/10/18 02:25:17;;;;;;;11.48;7.20;;;17.60;99.90;;;;;;5077772;28;20024;-83
2022/10/18 02:27:42;;;;;;;10.30;6.57;;;17.60;99.90;;;;;;5067748;28;20053;-83
2022/10/18 02:30:14;;;;;;;11.75;7.50;;;17.60;99.90;;;;;;5071152;28;20092;-87
2022/10/18 02:33:02;;;;;;;11.85;7.05;;;17.60;99.90;;;;;;5062593;28;20017;-87
2022/10/18 02:35:36;;;;;;;12.40;6.80;;;17.60;99.90;;;;;;5072043;28;20481;-84
2022/10/18 02:38:03;;;;;;;10.68;6.93;;;17.70;99.90;;;;;;5068807;28;20029;-84
2022/10/18 02:40:34;;;;;;;10.30;6.38;;;17.70;99.90;;;;;;5077714;28;20036;-86
2022/10/18 02:43:08;;;;;;;10.23;6.82;;;17.60;99.90;;;;;;5076699;28;20048;-87
2022/10/18 02:45:34;;;;;;;15.00;6.38;;;17.60;99.90;;;;;;5072750;28;20099;-87
2022/10/18 02:47:59;;;;;;;11.15;6.90;;;17.70;99.90;;;;;;5065569;28;20060;-87
2022/10/18 02:50:25;;;;;;;11.70;7.30;;;17.70;99.90;;;;;;5066463;28;20025;-86
2022/10/18 02:52:51;;;;;;;12.90;6.93;;;17.60;99.90;;;;;;5056824;28;20025;-87
2022/10/18 02:55:21;;;;;;;14.95;7.65;;;17.60;99.90;;;;;;5060778;28;20021;-88
2022/10/18 02:57:47;;;;;;;15.85;7.40;;;17.60;99.90;;;;;;5076597;28;20032;-88
2022/10/18 03:00:13;;;;;;;12.75;7.22;;;17.60;99.90;;;;;;5076295;28;20488;-88
2022/10/18 03:02:39;;;;;;;12.82;7.10;;;17.60;99.90;;;;;;5065818;28;20401;-88
2022/10/18 03:05:05;;;;;;;10.98;6.75;;;17.60;99.90;;;;;;5063576;28;20028;-88
2022/10/18 03:07:31;;;;;;;10.73;6.82;;;17.60;99.90;;;;;;5063147;28;20081;-87
2022/10/18 03:09:56;;;;;;;11.60;7.03;;;17.60;99.90;;;;;;5057342;28;20025;-88
2022/10/18 03:12:22;;;;;;;10.90;6.82;;;17.60;99.90;;;;;;5060039;28;20021;-87
2022/10/18 03:14:48;;;;;;;9.02;5.78;;;17.60;99.90;;;;;;5062003;28;20028;-88
2022/10/18 03:17:13;;;;;;;12.07;7.05;;;17.60;99.90;;;;;;5076974;28;20028;-88
2022/10/18 03:19:41;;;;;;;9.57;6.10;;;17.60;99.90;;;;;;5057251;28;20092;-85
2022/10/18 03:22:07;;;;;;;13.65;6.82;;;17.60;99.90;;;;;;5072449;28;20032;-86
2022/10/18 03:24:32;;;;;;;14.50;7.43;;;17.60;99.90;;;;;;5075874;28;20508;-86
2022/10/18 03:26:58;;;;;;;12.95;7.05;;;17.60;99.90;;;;;;5058002;28;20482;-86
2022/10/18 03:29:24;;;;;;;11.82;6.72;;;17.60;99.90;;;;;;5063375;28;20021;-86
2022/10/18 03:31:49;;;;;;;10.27;6.03;;;17.60;99.90;;;;;;5076558;28;20059;-87
2022/10/18 03:34:16;;;;;;;10.20;6.43;;;17.60;99.90;;;;;;5074048;28;20522;-85
2022/10/18 03:36:42;;;;;;;10.27;6.38;;;17.60;99.90;;;;;;5067909;28;20028;-85
2022/10/18 03:39:08;;;;;;;9.75;6.40;;;17.60;99.90;;;;;;5067966;28;20086;-85
2022/10/18 03:41:34;;;;;;;10.18;5.95;;;17.60;99.90;;;;;;5070634;28;20130;-84
2022/10/18 03:44:00;;;;;;;10.32;6.18;;;17.60;99.90;;;;;;5064007;28;20059;-83
2022/10/18 03:46:25;;;;;;;11.20;5.85;;;17.60;99.90;;;;;;5067288;28;20025;-84
2022/10/18 03:48:53;;;;;;;7.25;4.82;;;17.60;99.90;;;;;;5064048;28;20032;-87
2022/10/18 04:17:08;;;;;;;6.20;4.45;;;17.40;99.90;;;;;;5121697;27;20383;-88
2022/10/18 04:19:33;;;;;;;7.45;4.80;;;17.30;99.90;;;;;;5109744;28;20028;-88
2022/10/18 04:21:59;;;;;;;7.53;4.68;;;17.30;99.90;;;;;;5114288;28;20069;-88
2022/10/18 04:24:25;;;;;;;8.80;4.82;;;17.30;99.90;;;;;;5113664;28;20070;-80
2022/10/18 04:26:50;;;;;;;6.70;4.68;;;17.30;99.90;;;;;;5112758;28;20099;-83
2022/10/18 04:29:16;;;;;;;8.80;5.35;;;17.30;99.90;;;;;;5114624;28;20426;-83
2022/10/18 04:31:42;;;;;;;8.02;5.55;;;17.30;99.90;;;;;;5114355;28;20492;-83
2022/10/18 04:34:09;;;;;;;8.68;5.20;;;17.30;99.90;;;;;;5112246;28;20399;-83
2022/10/18 04:36:34;;;;;;;6.60;4.75;;;17.40;99.90;;;;;;5114467;28;20396;-84
2022/10/18 04:39:00;;;;;;;8.18;5.45;;;17.40;99.90;;;;;;5112494;28;20031;-86
2022/10/18 04:41:26;;;;;;;7.38;5.15;;;17.40;99.90;;;;;;5113327;28;20028;-84
2022/10/18 04:43:51;;;;;;;8.18;5.43;;;17.40;99.90;;;;;;5113206;28;20095;-83
2022/10/18 04:46:17;;;;;;;9.13;5.57;;;17.40;99.90;;;;;;5124005;28;20443;-85
2022/10/18 04:48:42;;;;;;;8.60;5.15;;;17.40;99.90;;;;;;5105286;28;20476;-85
2022/10/18 04:51:08;;;;;;;7.18;4.70;;;17.40;99.90;;;;;;5114117;28;20430;-84
2022/10/18 04:53:34;;;;;;;7.85;5.07;;;17.40;99.90;;;;;;5113994;28;20500;-84
2022/10/18 04:55:59;;;;;;;7.80;5.00;;;17.40;99.90;;;;;;5116132;28;20435;-84
2022/10/18 04:58:25;;;;;;;6.78;4.25;;;17.40;99.90;;;;;;5113717;28;20030;-84
2022/10/18 05:00:51;;;;;;;7.65;3.92;;;17.40;99.90;;;;;;5113714;28;20032;-84
2022/10/18 05:03:17;;;;;;;8.77;3.90;;;17.40;99.90;;;;;;5103846;28;20032;-84
2022/10/18 05:05:44;;;;;;;6.88;3.90;;;17.40;99.90;;;;;;5114176;28;20027;-83
2022/10/18 05:08:10;;;;;;;10.23;4.25;;;17.40;99.90;;;;;;5112060;28;20020;-83
2022/10/18 05:10:36;;;;;;;9.57;3.97;;;17.40;99.90;;;;;;5113542;28;20020;-83
2022/10/18 05:13:02;;;;;;;6.32;3.67;;;17.40;99.90;;;;;;5112588;28;20040;-83
2022/10/18 05:15:28;;;;;;;6.05;2.97;;;17.50;99.90;;;;;;5112031;28;20377;-82
2022/10/18 05:17:53;;;;;;;6.03;2.80;;;17.40;99.90;;;;;;5099871;28;20039;-84
2022/10/18 05:20:19;;;;;;;6.03;3.47;;;17.40;99.90;;;;;;5098483;28;20400;-84
2022/10/18 05:22:44;;;;;;;5.45;3.15;;;17.40;99.90;;;;;;5098283;28;20020;-83
2022/10/18 05:25:10;;;;;;;4.40;2.75;;;17.40;99.90;;;;;;5098001;28;20039;-84
2022/10/18 05:27:36;;;;;;;5.20;3.03;;;17.50;99.90;;;;;;5099874;28;20032;-85
2022/10/18 05:30:02;;;;;;;4.55;2.70;;;17.50;99.90;;;;;;5098568;28;20016;-83
2022/10/18 05:32:28;;;;;;;4.25;2.80;;;17.40;99.90;;;;;;5099023;28;20035;-82
2022/10/18 05:34:54;;;;;;;5.53;2.92;;;17.40;99.90;;;;;;5099396;28;20036;-82
2022/10/18 05:37:20;;;;;;;4.88;2.85;;;17.40;99.90;;;;;;5098966;28;20060;-82
2022/10/18 05:39:46;;;;;;;5.38;2.90;;;17.40;99.90;;;;;;5097891;28;20455;-82
2022/10/18 05:42:12;;;;;;;5.60;2.80;;;17.50;99.90;;;;;;5082551;28;20077;-82
2022/10/18 05:44:41;;;;;;;5.28;3.28;;;17.40;99.90;;;;;;5097939;28;20036;-87
2022/10/18 05:47:07;;;;;;;5.53;2.67;;;17.40;99.90;;;;;;5087909;28;20058;-84
2022/10/18 05:49:32;;;;;;;3.58;2.97;;;17.40;99.90;;;;;;5099796;28;20035;-86
2022/10/18 05:51:58;;;;;;;5.57;2.78;;;17.40;99.90;;;;;;5098876;28;20024;-85
2022/10/18 05:54:24;;;;;;;4.22;2.50;;;17.40;99.90;;;;;;5098113;28;20039;-85
2022/10/18 05:56:49;;;;;;;5.53;2.95;;;17.40;99.90;;;;;;5103074;28;20077;-82
2022/10/18 05:59:15;;;;;;;5.07;2.80;;;17.30;99.90;;;;;;5097969;28;20027;-82
2022/10/18 06:01:41;;;;;;;3.75;2.80;;;17.30;99.90;;;;;;5099290;28;20024;-82
2022/10/18 06:04:11;;;;;;;4.38;2.95;;;17.30;99.90;;;;;;5097950;28;20028;-82
2022/10/18 06:06:38;;;;;;;4.40;2.88;;;17.30;99.90;;;;;;5098256;28;20024;-82
2022/10/18 06:09:06;;;;;;;6.15;3.40;;;17.30;99.90;;;;;;5099182;28;20035;-82
2022/10/18 06:11:31;;;;;;;4.57;2.72;;;17.30;99.90;;;;;;5098280;28;20396;-82
2022/10/18 06:13:57;;;;;;;5.70;2.90;;;17.40;99.90;;;;;;5098105;28;20028;-82
2022/10/18 06:16:24;;;;;;;4.72;2.53;;;17.40;99.90;;;;;;5099156;28;20062;-83
2022/10/18 06:18:52;;;;;;;2.90;2.60;;;17.40;99.90;;;;;;5098396;28;20415;-82
2022/10/18 06:21:18;;;;;;;6.30;3.33;;;17.40;99.90;;;;;;5098991;28;20073;-81
2022/10/18 06:23:52;;;;;;;5.00;3.35;;;17.30;99.90;;;;;;5098768;28;20034;-81
2022/10/18 06:26:18;;;;;;;5.05;3.13;;;17.30;99.90;;;;;;5097763;28;20111;-81
2022/10/18 06:28:44;;;;;;;5.35;3.15;;;17.30;99.90;;;;;;5096984;28;20020;-89
2022/10/18 06:31:11;;;;;;;6.72;3.60;;;17.30;99.90;;;;;;5099156;28;20076;-87
2022/10/18 06:33:37;;;;;;;5.40;3.35;;;17.30;99.90;;;;;;5097477;28;20068;-87
2022/10/18 06:36:07;;;;;;;5.53;3.63;;;17.40;99.90;;;;;;5098784;28;20020;-87
2022/10/18 06:38:33;;;;;;;4.93;3.55;;;17.30;99.90;;;;;;5098290;28;20035;-85
2022/10/18 06:40:59;;;;;;;5.57;3.50;;;17.30;99.90;;;;;;5097810;28;20149;-87
2022/10/18 06:43:25;;;;;;;7.20;3.65;;;17.30;99.90;;;;;;5097376;28;20854;-85
2022/10/18 06:45:52;;;;;;;5.35;3.45;;;17.30;99.90;;;;;;5099311;28;20050;-88
2022/10/18 06:48:19;;;;;;;7.07;3.72;;;17.20;99.90;;;;;;5097482;28;20024;-88
2022/10/18 06:50:56;;;;;;;6.13;3.63;;;17.20;99.90;;;;;;5097375;28;20031;-87
2022/10/18 06:53:23;;;;;;;6.53;3.85;;;17.20;99.90;;;;;;5098814;28;20065;-87
2022/10/18 06:55:48;;;;;;;9.63;3.55;;;17.20;99.90;;;;;;5097053;28;20032;-85
2022/10/18 06:58:14;;;;;;;5.40;3.70;;;17.20;99.90;;;;;;5098432;28;20058;-90
2022/10/18 07:00:40;;;;;;;6.85;4.10;;;17.20;99.90;;;;;;5097620;28;20031;-89
2022/10/18 07:03:05;;;;;;;5.80;4.20;;;17.20;99.90;;;;;;5097633;28;20047;-89
2022/10/18 07:05:31;;;;;;;7.32;4.30;;;17.20;99.90;;;;;;5097079;28;20072;-82
2022/10/18 07:07:57;;;;;;;6.32;4.25;;;17.30;99.90;;;;;;5098368;28;20144;-84
2022/10/18 07:10:24;;;;;;;7.93;4.15;;;17.30;99.90;;;;;;5097848;28;20469;-83
2022/10/18 07:12:50;;;;;;;6.75;4.28;;;17.30;99.90;;;;;;5096994;28;20024;-85
2022/10/18 07:15:16;;;;;;;7.63;4.78;;;17.30;99.90;;;;;;5096765;28;20047;-84
2022/10/18 07:17:44;;;;;;;6.88;4.38;;;17.30;99.90;;;;;;5096994;28;20046;-86
2022/10/18 07:20:10;;;;;;;7.35;4.53;;;17.30;99.90;;;;;;5096675;28;20032;-83
2022/10/18 07:22:39;;;;;;;7.65;4.63;;;17.40;99.90;;;;;;5098048;28;20035;-83
2022/10/18 07:25:05;;;;;;;8.52;4.47;;;17.40;99.90;;;;;;5096268;28;20032;-83
2022/10/18 07:27:36;;;;;;;9.10;5.00;;;17.40;99.90;;;;;;5096564;28;20024;-83
2022/10/18 07:30:03;;;;;;;7.30;5.22;;;17.40;99.90;;;;;;5096248;28;20024;-83
2022/10/18 07:32:28;;;;;;;8.32;4.93;;;17.50;99.90;;;;;;5097838;28;20080;-83
2022/10/18 07:34:54;;;;;;;7.82;4.55;;;17.50;99.90;;;;;;5097581;28;20570;-82
2022/10/18 07:37:20;;;;;;;6.82;4.72;;;17.50;99.90;;;;;;5097660;28;20024;-82
2022/10/18 07:39:45;;;;;;;6.68;4.95;;;17.50;99.90;;;;;;5096182;28;20028;-82
2022/10/18 07:42:11;;;;;;;7.72;5.22;;;17.50;99.90;;;;;;5097681;28;20028;-80
2022/10/18 07:44:38;;;;;;;7.72;4.50;;;17.50;99.90;;;;;;5097311;28;20024;-73
2022/10/18 07:47:03;;;;;;;6.45;4.70;;;17.50;99.90;;;;;;5101933;28;20098;-72
2022/10/18 07:49:29;;;;;;;6.25;4.63;;;17.50;99.90;;;;;;5112009;28;20054;-71
2022/10/18 07:51:54;;;;;;;7.63;4.43;;;17.50;99.90;;;;;;5106610;28;20063;-71
2022/10/18 07:54:21;;;;;;;5.90;4.20;;;17.50;99.90;;;;;;5098254;28;20418;-72
2022/10/18 07:56:47;;;;;;;7.38;4.97;;;17.50;99.90;;;;;;5097277;28;20020;-73
2022/10/18 07:59:12;;;;;;;6.10;4.50;;;17.50;99.90;;;;;;5097283;28;20026;-72
2022/10/18 08:01:38;;;;;;;6.05;4.05;;;17.50;99.90;;;;;;5097175;28;20028;-74
2022/10/18 08:04:04;;;;;;;7.07;3.83;;;17.60;99.90;;;;;;5108110;28;20373;-72
2022/10/18 08:06:30;;;;;;;5.57;3.33;;;17.60;99.90;;;;;;5097123;28;20024;-71
2022/10/18 08:08:55;;;;;;;5.28;3.38;;;17.60;99.90;;;;;;5095663;28;20024;-73
2022/10/18 08:11:24;;;;;;;4.68;3.10;;;17.60;99.90;;;;;;5097097;28;20051;-74
2022/10/18 08:13:50;;;;;;;6.68;3.50;;;17.60;99.90;;;;;;5095832;28;20031;-73
2022/10/18 08:16:22;;;;;;;5.53;3.10;;;17.70;99.90;;;;;;5096222;28;20051;-72
2022/10/18 08:18:47;;;;;;;3.95;3.05;;;17.70;99.90;;;;;;5096535;28;20023;-72
2022/10/18 08:21:18;;;;;;;4.22;2.35;;;17.80;99.90;;;;;;5097855;28;20016;-73
2022/10/18 08:23:43;;;;;;;6.05;2.80;;;17.80;99.90;;;;;;5095426;28;20023;-73
2022/10/18 08:26:15;;;;;;;3.67;2.83;;;17.80;99.90;;;;;;5095160;28;20107;-73
2022/10/18 08:28:42;;;;;;;4.90;2.38;;;17.80;99.90;;;;;;5096153;28;20020;-72
2022/10/18 08:31:11;;;;;;;3.63;2.38;;;17.80;99.90;;;;;;5096394;28;20020;-72
2022/10/18 08:33:38;;;;;;;3.97;2.63;;;17.90;99.90;;;;;;5096225;28;20094;-72
2022/10/18 08:36:06;;;;;;;3.78;2.42;;;17.90;99.90;;;;;;5096451;28;20016;-72
2022/10/18 08:38:34;;;;;;;5.32;2.30;;;17.90;99.90;;;;;;5096379;28;20480;-72
2022/10/18 08:41:13;;;;;;;4.40;2.03;;;17.90;99.90;;;;;;5092434;28;20057;-72
2022/10/18 08:43:57;;;;;;;4.93;2.22;;;18.00;99.90;;;;;;5096432;28;20027;-72
2022/10/18 08:46:24;;;;;;;5.18;2.40;;;18.00;99.90;;;;;;5094007;28;20476;-72
2022/10/18 08:48:53;;;;;;;4.70;2.33;;;18.10;99.90;;;;;;5096566;28;21476;-71
2022/10/18 08:51:44;;;;;;;5.30;2.40;;;18.10;99.90;;;;;;5094282;28;20022;-70
2022/10/18 08:54:13;;;;;;;3.40;2.03;;;18.10;99.90;;;;;;5097182;28;20031;-71
2022/10/18 08:56:44;;;;;;;4.38;2.10;;;18.20;99.90;;;;;;5100026;28;20023;-72
2022/10/18 08:59:11;;;;;;;5.03;2.10;;;18.20;99.90;;;;;;5100116;28;20027;-72
2022/10/18 09:01:45;;;;;;;2.90;1.73;;;18.20;99.90;;;;;;5099672;28;20034;-72
2022/10/18 09:04:36;;;;;;;3.50;2.08;;;18.30;99.90;;;;;;5099797;28;20095;-71
2022/10/18 09:07:11;;;;;;;5.38;2.30;;;18.30;99.90;;;;;;5100095;28;20024;-71
2022/10/18 09:10:03;;;;;;;3.22;2.25;;;18.30;99.90;;;;;;5098495;28;20099;-72
2022/10/18 09:12:53;;;;;;;3.65;2.03;;;18.40;99.90;;;;;;5099284;28;20027;-72
2022/10/18 09:15:48;;;;;;;3.65;2.00;;;18.40;99.90;;;;;;5115175;28;20192;-71
2022/10/18 09:18:35;;;;;;;4.80;2.20;;;18.40;99.90;;;;;;5096577;28;20024;-71
2022/10/18 09:21:19;;;;;;;4.97;2.30;;;18.40;99.90;;;;;;5099848;28;20491;-71
2022/10/18 09:23:57;;;;;;;3.33;2.22;;;18.40;99.90;;;;;;5113701;28;20024;-71
2022/10/18 09:26:23;;;;;;;3.75;2.00;;;18.40;99.90;;;;;;5099944;28;20026;-72
2022/10/18 09:29:04;;;;;;;3.45;2.17;;;18.50;99.90;;;;;;5098773;28;20031;-72
2022/10/18 09:31:51;;;;;;;4.90;2.38;;;18.50;99.90;;;;;;5098534;28;20488;-73
2022/10/18 09:34:49;;;;;;;4.63;1.95;;;18.50;99.90;;;;;;5098528;28;20028;-71
2022/10/18 09:37:18;;;;;;;4.20;2.08;;;18.60;99.90;;;;;;5087370;28;20040;-72
2022/10/18 09:39:45;;;;;;;3.55;2.25;;;18.70;99.80;;;;;;5099373;28;20093;-74
2022/10/18 09:42:20;;;;;;;2.85;1.98;;;18.70;99.60;;;;;;5098251;28;20480;-75
2022/10/18 09:44:50;;;;;;;6.30;2.40;;;18.70;99.70;;;;;;5098215;28;20024;-75
2022/10/18 09:47:17;;;;;;;3.30;2.20;;;18.80;99.60;;;;;;5097843;28;20087;-82
2022/10/18 09:49:48;;;;;;;2.88;2.10;;;18.80;99.40;;;;;;5098508;28;20027;-85
2022/10/18 09:52:37;;;;;;;5.22;2.40;;;18.80;99.20;;;;;;5098723;28;20157;-79
2022/10/18 09:55:12;;;;;;;4.13;2.17;;;18.80;99.70;;;;;;5101753;28;20035;-80
2022/10/18 09:57:43;;;;;;;3.85;2.00;;;18.90;99.50;;;;;;5096244;28;20113;-80
2022/10/18 10:00:17;;;;;;;5.32;2.20;;;18.90;99.20;;;;;;5099447;28;20121;-75
2022/10/18 10:02:42;;;;;;;7.65;2.45;;;18.90;99.10;;;;;;5081370;28;20031;-79
2022/10/18 10:05:18;;;;;;;3.63;2.42;;;18.80;98.50;;;;;;5096226;28;20028;-72
2022/10/18 10:07:47;;;;;;;4.80;2.60;;;18.80;99.10;;;;;;5096392;28;20089;-72
2022/10/18 10:10:15;;;;;;;4.97;2.58;;;18.80;99.00;;;;;;5097335;28;20024;-72
2022/10/18 10:12:43;;;;;;;4.22;2.28;;;18.80;99.10;;;;;;5098354;28;20027;-74
2022/10/18 10:15:16;;;;;;;3.00;2.25;;;18.90;99.20;;;;;;5098435;28;20135;-75
2022/10/18 10:17:43;;;;;;;3.20;2.22;;;18.90;99.00;;;;;;5098152;28;20392;-74
2022/10/18 10:20:26;;;;;;;2.40;1.80;;;18.90;99.10;;;;;;5098621;28;20055;-75
2022/10/18 10:22:52;;;;;;;3.67;2.13;;;19.00;99.10;;;;;;5096922;28;20119;-78
2022/10/18 10:25:33;;;;;;;3.78;2.20;;;19.00;98.70;;;;;;5098274;28;20059;-76
2022/10/18 10:28:19;;;;;;;2.95;1.70;;;18.90;98.70;;;;;;5098357;28;20028;-79
2022/10/18 10:30:45;;;;;;;4.95;1.85;;;18.90;98.80;;;;;;5098169;28;20107;-82
2022/10/18 10:33:35;;;;;;;3.50;1.83;;;18.90;98.30;;;;;;5097867;28;20066;-77
2022/10/18 10:36:14;;;;;;;5.18;1.80;;;18.90;99.10;;;;;;5097148;28;20024;-75
2022/10/18 10:38:40;;;;;;;2.35;1.80;;;18.90;98.80;;;;;;5096682;28;20043;-77
2022/10/18 10:41:18;;;;;;;2.83;1.73;;;19.00;98.60;;;;;;5098069;28;20019;-74
2022/10/18 10:43:44;;;;;;;2.72;1.90;;;19.00;98.80;;;;;;5097999;28;20020;-74
2022/10/18 10:46:18;;;;;;;5.13;1.75;;;19.00;98.50;;;;;;5097814;28;20026;-75
2022/10/18 10:48:56;;;;;;;4.10;2.10;;;19.00;98.70;;;;;;5097326;28;20020;-74
2022/10/18 10:51:37;;;;;;;3.03;1.70;;;19.00;98.80;;;;;;5098005;28;20024;-78
2022/10/18 10:54:15;;;;;;;3.67;1.95;;;19.00;98.70;;;;;;5100681;28;20020;-77
2022/10/18 10:57:03;;;;;;;3.65;2.08;;;18.90;98.30;;;;;;5097746;28;20027;-77
2022/10/18 10:59:52;;;;;;;3.40;2.15;;;18.90;98.60;;;;;;5097597;28;20028;-78
2022/10/18 11:02:31;;;;;;;3.72;2.00;;;18.90;98.80;;;;;;5097539;28;20442;-76
2022/10/18 11:05:15;;;;;;;3.92;2.13;;;18.90;98.70;;;;;;5097190;28;20415;-74
2022/10/18 11:07:44;;;;;;;2.78;1.95;;;19.00;98.80;;;;;;5097816;28;20024;-74
2022/10/18 11:10:12;;;;;;;2.80;1.75;;;19.00;98.40;;;;;;5097111;28;20020;-74
2022/10/18 11:13:02;;;;;;;7.10;2.42;;;19.00;98.20;;;;;;5094899;28;20073;-79
2022/10/18 11:15:39;;;;;;;4.60;1.90;;;19.00;98.50;;;;;;5095029;28;20076;-81
2022/10/18 11:18:31;;;;;;;3.28;1.80;;;19.00;98.40;;;;;;5096799;28;20027;-75
2022/10/18 11:21:10;;;;;;;4.85;2.25;;;19.00;98.70;;;;;;5098130;28;20031;-74
2022/10/18 11:23:41;;;;;;;5.30;2.15;;;19.00;98.60;;;;;;5097592;28;20063;-72
2022/10/18 11:26:09;;;;;;;3.58;2.20;;;19.10;98.50;;;;;;5097921;28;20028;-74
2022/10/18 11:28:35;;;;;;;3.90;2.45;;;19.00;98.20;;;;;;5097431;28;20484;-73
2022/10/18 11:31:43;;;;;;;4.97;2.50;;;19.00;98.20;;;;;;5097640;28;20043;-74
2022/10/18 11:34:49;;;;;;;3.80;2.30;;;19.00;98.50;;;;;;5086962;28;20032;-73
2022/10/18 11:37:27;;;;;;;3.58;2.35;;;19.00;98.70;;;;;;5075201;28;20036;-73
2022/10/18 11:40:13;;;;;;;3.22;2.17;;;19.00;98.50;;;;;;5095598;28;20032;-74
2022/10/18 11:42:50;;;;;;;4.85;2.40;;;19.00;98.50;;;;;;5097623;28;20024;-73
2022/10/18 11:45:55;;;;;;;3.35;2.30;;;19.10;98.70;;;;;;5097460;28;20392;-72
2022/10/18 11:48:38;;;;;;;5.38;2.60;;;19.20;98.80;;;;;;5084816;28;20494;-74
2022/10/18 11:51:25;;;;;;;4.30;2.67;;;19.20;98.50;;;;;;5097338;28;20026;-74
2022/10/18 11:53:59;;;;;;;4.63;2.70;;;19.20;98.30;;;;;;5098431;28;20027;-74
2022/10/18 11:56:57;;;;;;;3.72;2.63;;;19.20;98.40;;;;;;5084537;28;20020;-75
2022/10/18 11:59:36;;;;;;;5.22;2.63;;;19.30;98.40;;;;;;5085831;28;20104;-74
2022/10/18 12:02:30;;;;;;;4.38;2.95;;;19.30;98.40;;;;;;5097308;28;20381;-73
2022/10/18 12:05:01;;;;;;;5.45;2.67;;;19.30;98.40;;;;;;5096989;28;20054;-74
2022/10/18 12:07:33;;;;;;;4.35;2.95;;;19.30;98.30;;;;;;5095950;28;20086;-74
2022/10/18 12:10:00;;;;;;;5.05;2.95;;;19.30;98.10;;;;;;5097291;28;20017;-74
2022/10/18 12:12:31;;;;;;;4.80;2.80;;;19.30;98.20;;;;;;5097234;28;20020;-74
2022/10/18 12:15:34;;;;;;;5.85;3.00;;;19.30;98.30;;;;;;5096870;28;20122;-74
2022/10/18 12:18:04;;;;;;;5.35;3.13;;;19.30;98.30;;;;;;5095416;28;20088;-77
2022/10/18 12:20:44;;;;;;;6.15;3.63;;;19.30;98.20;;;;;;5093856;28;20042;-77
2022/10/18 12:23:21;;;;;;;5.00;3.17;;;19.30;98.30;;;;;;5095541;28;20021;-80
2022/10/18 12:25:52;;;;;;;4.70;3.10;;;19.30;98.30;;;;;;5095086;28;20053;-82
2022/10/18 12:28:18;;;;;;;5.05;3.28;;;19.30;98.30;;;;;;5100038;28;20024;-81
2022/10/18 12:31:05;;;;;;;6.03;3.35;;;19.30;98.30;;;;;;5100339;28;20426;-81
2022/10/18 12:33:38;;;;;;;6.80;3.50;;;19.30;98.50;;;;;;5099369;28;20020;-77
2022/10/18 12:36:27;;;;;;;5.22;3.38;;;19.30;98.50;;;;;;5099237;28;20139;-77
2022/10/18 12:39:00;;;;;;;6.15;2.97;;;19.30;98.80;;;;;;5088824;28;20028;-77
2022/10/18 12:41:33;;;;;;;;;;;19.30;98.70;;;;;;5100664;28;20032;-76
2022/10/18 12:44:18;;;;;;;5.72;3.15;;;19.40;99.10;;;;;;5100564;28;19991;-76
2022/10/18 12:46:49;;;;;;;5.30;3.08;;;19.40;98.60;;;;;;5099842;28;20536;-74
2022/10/18 12:49:22;;;;;;;5.75;3.33;;;19.50;98.60;;;;;;5100043;28;20021;-76
2022/10/18 12:51:51;;;;;;;6.30;3.35;;;19.50;98.40;;;;;;5100050;28;20016;-77
2022/10/18 12:54:23;;;;;;;7.20;3.30;;;19.50;98.40;;;;;;5103255;28;20024;-77
2022/10/18 12:56:49;;;;;;;6.72;3.22;;;19.50;98.40;;;;;;5098861;28;20434;-77
2022/10/18 12:59:15;;;;;;;6.22;3.28;;;19.50;98.50;;;;;;5100165;28;20081;-76
2022/10/18 13:01:49;;;;;;;6.55;3.33;;;19.50;99.10;;;;;;5099777;28;20024;-78
2022/10/18 13:04:27;;;;;;;5.80;2.90;;;19.60;98.90;;;;;;5099892;28;20043;-79
2022/10/18 13:06:58;;;;;;;5.55;3.05;;;19.70;98.80;;;;;;5099838;28;20028;-78
2022/10/18 13:09:39;;;;;;;7.03;3.10;;;19.80;98.80;;;;;;5098758;28;20025;-80
2022/10/18 13:12:11;;;;;;;4.22;2.85;;;19.90;98.60;;;;;;5098331;28;20024;-77
2022/10/18 13:15:19;;;;;;;5.07;3.13;;;20.00;98.60;;;;;;5098879;28;20484;-78
2022/10/18 13:18:03;;;;;;;6.95;3.38;;;20.00;98.50;;;;;;5098221;28;20092;-75
2022/10/18 13:20:38;;;;;;;5.70;3.05;;;20.00;97.70;;;;;;5098166;28;20081;-78
2022/10/18 13:23:25;;;;;;;8.00;3.25;;;20.00;97.60;;;;;;5099805;28;20033;-80
2022/10/18 13:26:31;;;;;;;8.75;3.53;;;20.00;98.10;;;;;;5099160;28;20484;-75
2022/10/18 13:29:22;;;;;;;5.20;2.80;;;20.00;98.20;;;;;;5086746;28;20396;-75
2022/10/18 13:31:53;;;;;;;7.40;2.85;;;20.00;97.90;;;;;;5099056;28;20080;-77
2022/10/18 13:34:19;;;;;;;5.93;3.13;;;20.00;97.60;;;;;;5099404;28;20028;-76
2022/10/18 13:37:00;;;;;;;4.72;2.97;;;20.00;97.60;;;;;;5097899;28;20024;-75
2022/10/18 13:39:27;;;;;;;6.80;2.92;;;20.00;97.80;;;;;;5098266;28;20024;-81
2022/10/18 13:41:56;;;;;;;5.57;2.78;;;19.90;97.50;;;;;;5097869;28;20554;-85
2022/10/18 13:44:23;;;;;;;6.38;2.90;;;19.90;97.50;;;;;;5099547;28;20103;-79
2022/10/18 13:46:48;;;;;;;6.45;2.63;;;19.90;97.50;;;;;;5097621;28;20031;-82
2022/10/18 13:49:20;;;;;;;4.22;2.17;;;19.80;97.60;;;;;;5114764;28;20404;-82
2022/10/18 13:51:52;;;;;;;5.57;2.42;;;19.80;97.70;;;;;;5097694;28;20022;-80
2022/10/18 13:54:28;;;;;;;5.35;2.35;;;19.80;97.50;;;;;;5102241;28;20393;-81
2022/10/18 13:57:12;;;;;;;5.07;2.50;;;19.80;97.80;;;;;;5099035;28;20024;-81
2022/10/18 13:59:57;;;;;;;5.47;2.75;;;19.80;97.60;;;;;;5098752;28;20115;-81
2022/10/18 14:02:33;;;;;;;5.18;2.55;;;19.90;98.00;;;;;;5098774;28;20107;-83
2022/10/18 14:05:23;;;;;;;4.07;2.40;;;19.90;97.80;;;;;;5097663;28;20141;-81
2022/10/18 14:07:50;;;;;;;5.15;2.30;;;20.00;98.00;;;;;;5097328;28;20023;-77
2022/10/18 14:10:39;;;;;;;6.50;2.30;;;20.00;97.80;;;;;;5097514;28;20024;-78
2022/10/18 14:13:13;;;;;;;4.13;2.30;;;20.10;97.80;;;;;;5098575;28;20500;-77
2022/10/18 14:15:42;;;;;;;5.80;2.55;;;20.10;97.60;;;;;;5098322;28;20044;-75
2022/10/18 14:18:17;;;;;;;4.05;2.60;;;20.20;97.60;;;;;;5098213;28;20024;-75
2022/10/18 14:20:50;;;;;;;3.03;2.30;;;20.20;97.50;;;;;;5099813;28;20091;-75
2022/10/18 14:23:26;;;;;;;7.03;2.38;;;20.20;97.60;;;;;;5100013;28;20016;-75